createdAt,value
2022-08-16T00:00:38.686Z,4.03
2022-08-16T00:03:06.570Z,4.00
2022-08-16T00:05:48.466Z,4.23
2022-08-16T00:08:35.963Z,4.00
2022-08-16T00:11:05.797Z,3.83
2022-08-16T00:13:41.815Z,4.30
2022-08-16T00:17:01.376Z,3.80
2022-08-16T00:18:56.500Z,4.80
2022-08-16T00:21:23.521Z,4.27
2022-08-16T00:23:50.254Z,4.50
2022-08-16T00:26:35.001Z,4.30
2022-08-16T00:29:04.761Z,4.17
2022-08-16T00:31:59.410Z,4.13
2022-08-16T00:34:22.948Z,4.30
2022-08-16T00:37:10.394Z,4.17
2022-08-16T00:39:37.200Z,4.23
2022-08-16T00:42:10.175Z,4.43
2022-08-16T00:44:38.901Z,3.80
2022-08-16T00:47:12.509Z,4.47
2022-08-16T00:49:44.872Z,4.60
2022-08-16T00:52:29.525Z,4.37
2022-08-16T00:54:57.189Z,4.60
2022-08-16T00:57:24.208Z,4.23
2022-08-16T00:59:58.729Z,4.40
2022-08-16T01:02:31.235Z,4.30
2022-08-16T01:05:10.782Z,4.50
2022-08-16T01:07:51.135Z,4.20
2022-08-16T01:10:32.035Z,4.37
2022-08-16T01:13:06.627Z,4.27
2022-08-16T01:15:36.366Z,4.37
2022-08-16T01:18:06.638Z,4.50
2022-08-16T01:20:41.666Z,4.30
2022-08-16T01:23:14.790Z,4.57
2022-08-16T01:26:00.216Z,4.50
2022-08-16T01:28:38.814Z,4.63
2022-08-16T01:31:13.713Z,3.90
2022-08-16T01:33:40.397Z,4.30
2022-08-16T01:36:12.998Z,4.73
2022-08-16T01:38:48.971Z,4.47
2022-08-16T01:41:19.937Z,4.10
2022-08-16T01:43:53.713Z,4.40
2022-08-16T01:46:37.210Z,4.50
2022-08-16T01:49:15.433Z,4.30
2022-08-16T01:51:45.702Z,4.10
2022-08-16T01:54:13.175Z,4.77
2022-08-16T01:56:40.952Z,4.77
2022-08-16T01:59:15.727Z,4.20
2022-08-16T02:01:49.570Z,4.00
2022-08-16T02:04:48.215Z,4.00
2022-08-16T02:07:11.316Z,4.13
2022-08-16T02:09:41.071Z,4.10
2022-08-16T02:12:50.481Z,4.30
2022-08-16T02:14:57.608Z,4.20
2022-08-16T02:17:28.502Z,3.90
2022-08-16T02:20:00.018Z,4.00
2022-08-16T02:22:34.815Z,3.77
2022-08-16T02:25:14.635Z,3.87
2022-08-16T02:27:43.802Z,3.90
2022-08-16T02:30:37.197Z,3.90
2022-08-16T02:33:06.381Z,3.80
2022-08-16T02:35:34.210Z,3.70
2022-08-16T02:38:16.874Z,3.60
2022-08-16T02:40:45.634Z,4.10
2022-08-16T02:43:13.159Z,3.60
2022-08-16T02:45:41.145Z,3.90
2022-08-16T02:48:28.235Z,4.20
2022-08-16T02:51:07.998Z,3.83
2022-08-16T02:53:44.817Z,3.87
2022-08-16T02:56:15.168Z,4.13
2022-08-16T02:58:44.114Z,3.67
2022-08-16T03:01:25.310Z,4.00
2022-08-16T03:04:41.057Z,3.93
2022-08-16T03:06:46.654Z,4.17
2022-08-16T03:09:16.284Z,4.17
2022-08-16T03:11:44.726Z,4.10
2022-08-16T03:14:12.248Z,4.13
2022-08-16T03:16:58.590Z,4.30
2022-08-16T03:19:59.414Z,3.93
2022-08-16T03:22:19.520Z,3.67
2022-08-16T03:24:57.353Z,3.97
2022-08-16T03:27:25.013Z,4.07
2022-08-16T03:29:54.476Z,4.00
2022-08-16T03:32:21.792Z,4.23
2022-08-16T03:34:50.017Z,4.20
2022-08-16T03:37:17.085Z,4.17
2022-08-16T03:39:43.772Z,4.00
2022-08-16T03:42:10.590Z,3.90
2022-08-16T03:44:44.734Z,4.20
2022-08-16T03:47:18.783Z,3.90
2022-08-16T03:49:52.282Z,4.20
2022-08-16T03:52:23.906Z,4.33
2022-08-16T03:54:59.277Z,5.00
2022-08-16T03:57:31.807Z,4.63
2022-08-16T04:00:35.224Z,4.33
2022-08-16T04:03:07.254Z,4.80
2022-08-16T04:05:36.969Z,5.23
2022-08-16T04:08:22.423Z,4.90
2022-08-16T04:10:52.850Z,4.80
2022-08-16T04:13:20.557Z,5.30
2022-08-16T04:16:06.971Z,4.77
2022-08-16T04:18:36.826Z,5.30
2022-08-16T04:21:03.851Z,5.10
2022-08-16T04:23:30.432Z,5.20
2022-08-16T04:25:58.243Z,4.87
2022-08-16T04:28:53.496Z,4.90
2022-08-16T04:31:15.456Z,5.07
2022-08-16T04:33:50.749Z,5.13
2022-08-16T04:36:20.171Z,4.93
2022-08-16T04:38:47.277Z,5.23
2022-08-16T04:41:17.327Z,4.70
2022-08-16T04:43:45.028Z,5.17
2022-08-16T04:46:19.850Z,5.30
2022-08-16T04:49:01.732Z,5.03
2022-08-16T04:51:28.255Z,4.70
2022-08-16T04:54:03.171Z,4.90
2022-08-16T04:56:30.431Z,5.20
2022-08-16T04:58:57.732Z,5.27
2022-08-16T05:01:24.702Z,5.23
2022-08-16T05:04:19.481Z,5.40
2022-08-16T05:06:47.088Z,5.07
2022-08-16T05:09:14.257Z,4.90
2022-08-16T05:11:45.672Z,4.90
2022-08-16T05:14:20.155Z,5.10
2022-08-16T05:17:02.616Z,4.53
2022-08-16T05:19:35.923Z,4.83
2022-08-16T05:22:02.887Z,5.53
2022-08-16T05:24:32.755Z,5.10
2022-08-16T05:27:00.215Z,5.03
2022-08-16T05:29:56.858Z,4.90
2022-08-16T05:32:32.883Z,4.93
2022-08-16T05:35:07.758Z,4.93
2022-08-16T05:37:40.251Z,4.83
2022-08-16T05:40:09.268Z,4.93
2022-08-16T05:42:40.163Z,5.33
2022-08-16T05:45:13.088Z,5.00
2022-08-16T05:47:48.076Z,5.40
2022-08-16T05:50:28.198Z,5.30
2022-08-16T05:53:00.577Z,4.90
2022-08-16T05:55:28.215Z,5.20
2022-08-16T05:57:56.945Z,5.10
2022-08-16T06:00:23.755Z,5.00
2022-08-16T06:02:51.121Z,5.23
2022-08-16T06:05:18.204Z,5.17
2022-08-16T06:07:45.463Z,6.80
2022-08-16T06:10:32.369Z,7.60
2022-08-16T06:13:02.663Z,5.57
2022-08-16T06:15:30.656Z,5.67
2022-08-16T06:17:58.942Z,5.77
2022-08-16T06:20:35.038Z,6.10
2022-08-16T06:23:04.047Z,5.70
2022-08-16T06:25:39.605Z,5.57
2022-08-16T06:28:16.943Z,5.17
2022-08-16T06:30:59.058Z,4.97
2022-08-16T06:33:28.320Z,5.80
2022-08-16T06:35:59.480Z,5.67
2022-08-16T06:38:33.069Z,5.87
2022-08-16T06:41:01.516Z,6.30
2022-08-16T06:43:29.064Z,6.03
2022-08-16T06:45:56.281Z,6.20
2022-08-16T06:48:32.135Z,6.60
2022-08-16T06:51:00.015Z,6.90
2022-08-16T06:53:26.574Z,6.37
2022-08-16T06:55:58.733Z,6.00
2022-08-16T06:58:31.933Z,6.33
2022-08-16T07:01:00.241Z,6.17
2022-08-16T07:03:32.404Z,6.23
2022-08-16T07:05:59.692Z,10.97
2022-08-16T07:08:27.703Z,11.13
2022-08-16T07:10:56.390Z,11.33
2022-08-16T07:16:15.666Z,8.07
2022-08-16T07:19:01.551Z,7.97
2022-08-16T07:21:46.573Z,6.70
2022-08-16T07:24:30.468Z,6.43
2022-08-16T07:27:00.664Z,7.27
2022-08-16T07:29:28.008Z,7.20
2022-08-16T07:31:58.968Z,6.57
2022-08-16T07:34:35.025Z,6.53
2022-08-16T07:37:07.512Z,7.00
2022-08-16T07:39:34.364Z,6.87
2022-08-16T07:42:10.028Z,6.17
2022-08-16T07:44:49.100Z,7.00
2022-08-16T07:47:17.353Z,6.93
2022-08-16T07:49:52.846Z,6.57
2022-08-16T07:52:29.636Z,7.20
2022-08-16T07:54:56.316Z,6.60
2022-08-16T07:57:24.099Z,6.70
2022-08-16T07:59:53.531Z,7.13
2022-08-16T08:02:33.459Z,7.40
2022-08-16T08:05:03.442Z,6.80
2022-08-16T08:07:32.386Z,6.70
2022-08-16T08:10:00.974Z,7.40
2022-08-16T08:12:32.447Z,6.90
2022-08-16T08:15:05.980Z,7.47
2022-08-16T08:17:43.217Z,6.73
2022-08-16T08:20:20.854Z,7.20
2022-08-16T08:23:00.027Z,6.80
2022-08-16T08:25:54.308Z,8.07
2022-08-16T08:28:17.271Z,8.07
2022-08-16T08:30:51.927Z,9.60
2022-08-16T08:33:28.637Z,8.37
2022-08-16T08:36:01.061Z,9.00
2022-08-16T08:38:46.022Z,8.70
2022-08-16T08:41:18.655Z,7.97
2022-08-16T08:43:47.359Z,8.07
2022-08-16T08:46:21.438Z,7.67
2022-08-16T08:49:00.165Z,8.80
2022-08-16T08:51:35.887Z,8.03
2022-08-16T08:54:09.266Z,7.90
2022-08-16T08:56:45.450Z,7.50
2022-08-16T08:59:19.760Z,7.47
2022-08-16T09:01:57.175Z,7.73
2022-08-16T09:04:24.779Z,7.90
2022-08-16T09:06:53.759Z,7.77
2022-08-16T09:09:21.000Z,7.30
2022-08-16T09:11:53.310Z,7.80
2022-08-16T09:14:24.010Z,7.70
2022-08-16T09:17:01.581Z,7.47
2022-08-16T09:19:34.664Z,8.00
2022-08-16T09:22:01.706Z,7.50
2022-08-16T09:24:46.674Z,7.33
2022-08-16T09:27:14.987Z,6.80
2022-08-16T09:29:45.417Z,6.77
2022-08-16T09:32:13.163Z,7.77
2022-08-16T09:34:58.504Z,6.90
2022-08-16T09:37:29.467Z,7.03
2022-08-16T09:39:59.632Z,6.60
2022-08-16T09:42:30.486Z,6.80
2022-08-16T09:45:18.512Z,6.70
2022-08-16T09:47:56.469Z,6.33
2022-08-16T09:50:38.327Z,6.53
2022-08-16T09:53:15.527Z,6.40
2022-08-16T09:55:49.374Z,6.40
2022-08-16T09:58:40.738Z,7.50
2022-08-16T10:01:04.501Z,7.50
2022-08-16T10:03:31.622Z,6.33
2022-08-16T10:05:58.314Z,7.43
2022-08-16T10:08:26.307Z,6.87
2022-08-16T10:11:12.274Z,6.47
2022-08-16T10:13:39.671Z,6.97
2022-08-16T10:16:09.230Z,6.83
2022-08-16T10:19:02.320Z,5.80
2022-08-16T10:21:24.526Z,5.67
2022-08-16T10:23:56.041Z,6.23
2022-08-16T10:27:17.503Z,5.93
2022-08-16T10:29:19.948Z,6.23
2022-08-16T10:31:53.340Z,6.87
2022-08-16T10:34:31.744Z,5.60
2022-08-16T10:37:01.977Z,6.30
2022-08-16T10:39:40.599Z,5.93
2022-08-16T10:42:08.748Z,6.17
2022-08-16T10:44:37.494Z,5.77
2022-08-16T10:47:05.358Z,5.87
2022-08-16T10:49:34.754Z,5.53
2022-08-16T10:52:18.810Z,6.27
2022-08-16T10:57:36.600Z,5.93
2022-08-16T11:00:22.520Z,6.07
2022-08-16T11:02:58.872Z,5.40
2022-08-16T11:05:59.103Z,5.83
2022-08-16T11:08:13.869Z,5.07
2022-08-16T11:11:06.451Z,5.43
2022-08-16T11:16:27.774Z,5.97
2022-08-16T11:19:14.382Z,5.37
2022-08-16T11:24:41.430Z,5.20
2022-08-16T11:27:22.990Z,5.60
2022-08-16T11:29:53.363Z,5.80
2022-08-16T11:32:31.395Z,5.60
2022-08-16T11:35:14.350Z,5.30
2022-08-16T11:40:52.166Z,5.70
2022-08-16T11:43:23.799Z,6.00
2022-08-16T11:45:55.315Z,5.63
2022-08-16T11:48:25.626Z,5.80
2022-08-16T11:50:52.915Z,5.30
2022-08-16T11:53:21.212Z,5.60
2022-08-16T11:55:55.047Z,6.50
2022-08-16T11:58:31.800Z,6.20
2022-08-16T12:01:00.469Z,6.30
2022-08-16T12:03:35.095Z,5.70
2022-08-16T12:06:30.557Z,5.23
2022-08-16T12:09:01.054Z,5.47
2022-08-16T12:11:31.445Z,5.63
2022-08-16T12:14:00.743Z,5.17
2022-08-16T12:16:31.083Z,5.80
2022-08-16T12:19:00.781Z,5.83
2022-08-16T12:21:36.005Z,5.57
2022-08-16T12:24:37.237Z,5.43
2022-08-16T12:27:05.825Z,5.77
2022-08-16T12:29:35.505Z,5.30
2022-08-16T12:32:35.774Z,5.97
2022-08-16T12:34:52.768Z,6.03
2022-08-16T12:37:20.774Z,5.53
2022-08-16T12:39:50.761Z,9.07
2022-08-16T12:42:20.574Z,5.20
2022-08-16T12:44:47.671Z,5.90
2022-08-16T12:47:32.868Z,5.20
2022-08-16T12:50:01.810Z,5.63
2022-08-16T12:52:33.888Z,5.50
2022-08-16T12:55:02.167Z,5.20
2022-08-16T12:57:58.047Z,5.40
2022-08-16T13:00:33.071Z,5.40
2022-08-16T13:03:02.454Z,5.53
2022-08-16T13:07:58.838Z,4.97
2022-08-16T13:10:37.082Z,4.90
2022-08-16T13:13:08.846Z,5.13
2022-08-16T13:15:51.818Z,5.43
2022-08-16T13:18:32.343Z,5.10
2022-08-16T13:21:06.694Z,4.95
2022-08-16T13:23:35.886Z,5.53
2022-08-16T13:26:03.454Z,5.45
2022-08-16T13:28:30.047Z,5.72
2022-08-16T13:30:58.417Z,5.30
2022-08-16T13:33:37.166Z,5.32
2022-08-16T13:36:17.135Z,5.15
2022-08-16T13:38:53.080Z,5.25
2022-08-16T13:41:21.087Z,5.90
2022-08-16T13:43:55.096Z,5.30
2022-08-16T13:46:24.704Z,6.18
2022-08-16T13:48:52.977Z,5.43
2022-08-16T13:51:20.287Z,5.47
2022-08-16T13:53:59.055Z,5.72
2022-08-16T13:56:37.185Z,5.63
2022-08-16T13:59:19.286Z,5.43
2022-08-16T14:01:55.079Z,5.68
2022-08-16T14:04:32.376Z,5.25
2022-08-16T14:07:01.393Z,5.28
2022-08-16T14:09:30.293Z,5.40
2022-08-16T14:12:00.877Z,5.40
2022-08-16T14:14:30.063Z,5.35
2022-08-16T14:17:01.811Z,4.82
2022-08-16T14:19:31.397Z,5.13
2022-08-16T14:22:14.243Z,5.43
2022-08-16T14:24:47.068Z,4.85
2022-08-16T14:27:17.054Z,5.13
2022-08-16T14:29:44.766Z,5.20
2022-08-16T14:32:13.134Z,5.47
2022-08-16T14:34:52.087Z,4.97
2022-08-16T14:37:25.332Z,5.68
2022-08-16T14:39:54.495Z,5.72
2022-08-16T14:42:23.969Z,5.45
2022-08-16T14:44:51.952Z,5.43
2022-08-16T14:47:18.874Z,4.93
2022-08-16T14:49:45.504Z,5.20
2022-08-16T14:52:44.283Z,5.53
2022-08-16T14:55:06.119Z,5.45
2022-08-16T14:57:33.374Z,5.60
2022-08-16T15:00:05.646Z,5.05
2022-08-16T15:02:34.343Z,5.13
2022-08-16T15:05:04.471Z,5.20
2022-08-16T15:07:35.138Z,4.57
2022-08-16T15:10:02.385Z,5.30
2022-08-16T15:12:33.680Z,4.97
2022-08-16T15:15:12.878Z,5.57
2022-08-16T15:17:54.060Z,5.07
2022-08-16T15:20:23.037Z,5.13
2022-08-16T15:22:53.302Z,5.05
2022-08-16T15:25:31.896Z,5.80
2022-08-16T15:28:04.705Z,5.47
2022-08-16T15:30:56.637Z,5.80
2022-08-16T15:33:23.235Z,5.53
2022-08-16T15:35:55.316Z,4.68
2022-08-16T15:38:55.027Z,4.60
2022-08-16T15:41:47.990Z,4.90
2022-08-16T15:44:22.523Z,4.88
2022-08-16T15:46:55.301Z,5.10
2022-08-16T15:49:37.761Z,4.97
2022-08-16T15:52:20.542Z,5.45
2022-08-16T15:54:53.657Z,5.07
2022-08-16T15:57:25.920Z,4.97
2022-08-16T15:59:56.097Z,5.30
2022-08-16T16:02:31.606Z,5.20
2022-08-16T16:05:04.363Z,6.32
2022-08-16T16:07:33.245Z,5.38
2022-08-16T16:10:01.976Z,4.60
2022-08-16T16:12:50.201Z,4.80
2022-08-16T16:15:22.686Z,4.63
2022-08-16T16:17:53.085Z,4.87
2022-08-16T16:20:24.326Z,4.85
2022-08-16T16:22:51.476Z,4.80
2022-08-16T16:25:18.679Z,4.87
2022-08-16T16:27:45.562Z,4.60
2022-08-16T16:30:37.218Z,4.20
2022-08-16T16:33:02.398Z,4.70
2022-08-16T16:35:32.745Z,4.90
2022-08-16T16:38:01.014Z,4.83
2022-08-16T16:40:32.723Z,5.80
2022-08-16T16:43:04.231Z,8.00
2022-08-16T16:45:36.349Z,9.57
2022-08-16T16:48:12.347Z,10.32
2022-08-16T16:50:44.597Z,5.37
2022-08-16T16:53:17.126Z,4.87
2022-08-16T16:55:51.680Z,5.07
2022-08-16T16:58:43.329Z,4.43
2022-08-16T17:01:10.330Z,4.93
2022-08-16T17:03:38.630Z,4.60
2022-08-16T17:06:10.193Z,5.20
2022-08-16T17:08:41.435Z,5.10
2022-08-16T17:11:09.842Z,4.77
2022-08-16T17:13:36.972Z,4.70
2022-08-16T17:16:05.183Z,4.63
2022-08-16T17:19:17.153Z,4.53
2022-08-16T17:21:19.525Z,4.37
2022-08-16T17:23:58.008Z,4.97
2022-08-16T17:26:30.988Z,5.03
2022-08-16T17:29:02.803Z,4.87
2022-08-16T17:31:40.922Z,4.40
2022-08-16T17:34:28.833Z,4.80
2022-08-16T17:36:59.577Z,4.90
2022-08-16T17:39:30.479Z,4.77
2022-08-16T17:42:03.318Z,4.87
2022-08-16T17:44:30.181Z,4.23
2022-08-16T17:46:56.715Z,5.20
2022-08-16T17:49:23.320Z,4.70
2022-08-16T17:51:50.009Z,4.30
2022-08-16T17:54:20.335Z,4.57
2022-08-16T17:56:57.083Z,4.40
2022-08-16T17:59:24.278Z,4.77
2022-08-16T18:01:50.972Z,4.63
2022-08-16T18:04:48.087Z,4.10
2022-08-16T18:07:05.374Z,4.67
2022-08-16T18:09:31.996Z,4.47
2022-08-16T18:11:58.712Z,4.77
2022-08-16T18:14:51.075Z,4.77
2022-08-16T18:17:12.988Z,4.70
2022-08-16T18:19:39.656Z,4.60
2022-08-16T18:22:18.112Z,4.97
2022-08-16T18:24:49.893Z,4.40
2022-08-16T18:27:25.653Z,4.40
2022-08-16T18:29:53.247Z,4.77
2022-08-16T18:32:23.147Z,4.10
2022-08-16T18:34:52.447Z,4.87
2022-08-16T18:37:19.076Z,4.37
2022-08-16T18:39:45.688Z,4.43
2022-08-16T18:42:15.031Z,4.93
2022-08-16T18:44:43.597Z,4.60
2022-08-16T18:47:10.386Z,5.20
2022-08-16T18:49:37.211Z,4.77
2022-08-16T18:52:04.303Z,4.30
2022-08-16T18:54:32.811Z,4.40
2022-08-16T18:56:59.493Z,4.80
2022-08-16T18:59:29.501Z,5.10
2022-08-16T19:02:00.130Z,5.37
2022-08-16T19:04:55.916Z,5.07
2022-08-16T19:07:19.366Z,5.43
2022-08-16T19:09:46.551Z,5.40
2022-08-16T19:12:15.976Z,5.80
2022-08-16T19:14:44.245Z,6.13
2022-08-16T19:17:12.007Z,5.77
2022-08-16T19:19:38.572Z,5.30
2022-08-16T19:22:06.308Z,5.50
2022-08-16T19:24:33.061Z,5.70
2022-08-16T19:26:59.657Z,7.30
2022-08-16T19:29:28.625Z,5.60
2022-08-16T19:31:55.358Z,5.77
2022-08-16T19:34:22.014Z,5.73
2022-08-16T19:36:48.782Z,5.83
2022-08-16T19:39:16.255Z,5.20
2022-08-16T19:41:45.723Z,5.30
2022-08-16T19:44:12.792Z,5.37
2022-08-16T19:46:43.549Z,5.80
2022-08-16T19:49:10.245Z,5.40
2022-08-16T19:51:42.614Z,5.60
2022-08-16T19:54:09.133Z,5.20
2022-08-16T19:56:35.687Z,5.53
2022-08-16T19:59:18.912Z,5.30
2022-08-16T20:01:46.457Z,5.33
2022-08-16T20:04:13.575Z,5.20
2022-08-16T20:06:42.318Z,5.80
2022-08-16T20:09:10.386Z,5.80
2022-08-16T20:11:39.193Z,5.60
2022-08-16T20:14:05.740Z,5.03
2022-08-16T20:16:32.471Z,5.30
2022-08-16T20:18:59.073Z,5.77
2022-08-16T20:21:25.983Z,5.43
2022-08-16T20:23:58.318Z,5.10
2022-08-16T20:26:36.925Z,5.83
2022-08-16T20:29:06.704Z,5.30
2022-08-16T20:31:33.349Z,5.07
2022-08-16T20:33:59.993Z,5.43
2022-08-16T20:36:26.566Z,5.30
2022-08-16T20:38:54.034Z,5.13
2022-08-16T20:41:20.540Z,5.03
2022-08-16T20:43:47.691Z,5.30
2022-08-16T20:46:14.710Z,5.80
2022-08-16T20:48:41.833Z,5.50
2022-08-16T20:51:10.772Z,5.50
2022-08-16T20:53:39.360Z,5.90
2022-08-16T20:56:06.970Z,5.40
2022-08-16T20:58:33.778Z,5.67
2022-08-16T21:01:01.093Z,5.60
2022-08-16T21:03:27.910Z,6.37
2022-08-16T21:05:57.629Z,6.80
2022-08-16T21:08:52.714Z,6.77
2022-08-16T21:11:11.735Z,7.30
2022-08-16T21:13:42.594Z,6.37
2022-08-16T21:16:09.981Z,6.73
2022-08-16T21:18:36.535Z,6.40
2022-08-16T21:21:03.316Z,6.37
2022-08-16T21:23:30.958Z,5.87
2022-08-16T21:25:57.999Z,5.93
2022-08-16T21:28:40.527Z,5.13
2022-08-16T21:31:11.555Z,5.47
2022-08-16T21:33:38.111Z,5.50
2022-08-16T21:36:05.376Z,5.93
2022-08-16T21:38:32.344Z,5.43
2022-08-16T21:41:00.259Z,5.27
2022-08-16T21:43:32.271Z,5.60
2022-08-16T21:46:03.373Z,5.30
2022-08-16T21:48:33.570Z,5.33
2022-08-16T21:51:10.619Z,6.00
2022-08-16T21:53:37.727Z,5.30
2022-08-16T21:56:06.286Z,5.60
2022-08-16T21:58:33.656Z,6.10
2022-08-16T22:01:01.470Z,5.63
2022-08-16T22:03:28.453Z,5.40
2022-08-16T22:06:11.516Z,6.00
2022-08-16T22:08:48.055Z,5.50
2022-08-16T22:11:17.325Z,5.40
2022-08-16T22:13:49.243Z,5.60
2022-08-16T22:16:26.127Z,5.80
2022-08-16T22:18:53.053Z,6.27
2022-08-16T22:21:20.470Z,5.63
2022-08-16T22:23:57.846Z,5.73
2022-08-16T22:26:31.878Z,5.30
2022-08-16T22:29:06.177Z,5.87
2022-08-16T22:31:33.978Z,5.33
2022-08-16T22:34:02.044Z,5.30
2022-08-16T22:36:29.806Z,5.93
2022-08-16T22:38:58.699Z,5.50
2022-08-16T22:41:31.959Z,6.10
2022-08-16T22:44:00.305Z,5.53
2022-08-16T22:46:26.877Z,6.27
2022-08-16T22:48:53.572Z,5.87
2022-08-16T22:51:22.903Z,5.87
2022-08-16T22:53:49.802Z,6.43
2022-08-16T22:56:17.833Z,6.17
2022-08-16T22:58:45.708Z,5.77
2022-08-16T23:01:13.578Z,6.17
2022-08-16T23:03:41.463Z,6.57
2022-08-16T23:06:10.359Z,5.93
2022-08-16T23:08:40.652Z,6.17
2022-08-16T23:11:10.606Z,6.03
2022-08-16T23:13:37.738Z,6.80
2022-08-16T23:16:17.495Z,6.77
2022-08-16T23:18:44.449Z,7.13
2022-08-16T23:21:11.897Z,6.87
2022-08-16T23:23:39.253Z,6.33
2022-08-16T23:26:47.203Z,7.17
2022-08-16T23:28:54.787Z,6.83
2022-08-16T23:31:21.343Z,6.20
2022-08-16T23:33:47.879Z,6.70
2022-08-16T23:36:14.640Z,6.70
2022-08-16T23:38:41.973Z,7.20
2022-08-16T23:41:11.763Z,7.10
2022-08-16T23:43:42.130Z,6.50
2022-08-16T23:46:19.534Z,7.13
2022-08-16T23:49:59.360Z,6.90
2022-08-16T23:51:32.988Z,7.37
2022-08-16T23:54:00.664Z,7.77
2022-08-16T23:56:27.208Z,6.97
2022-08-16T23:59:02.674Z,7.97
